Time;durP1;ratioP1;P1;durP2;ratioP2;P2;SDS_P1;SDS_P2;PMS_P1;PMS_P2;Temp;Humidity;BMP_temperature;BMP_pressure;BME280_temperature;BME280_humidity;BME280_pressure;Samples;Min_cycle;Max_cycle;Signal;HPM_P1;HPM_P2
2023/04/16 00:01:16;;;;;;;34.30;28.05;;;;;;;;;;5071109;28;20419;-83
2023/04/16 00:03:43;;;;;;;37.95;29.73;;;;;;;;;;5071986;28;20413;-83
2023/04/16 00:06:10;;;;;;;38.58;29.88;;;;;;;;;;5070242;28;20436;-83
2023/04/16 00:08:37;;;;;;;36.20;28.98;;;;;;;;;;5069326;28;20430;-83
2023/04/16 00:11:05;;;;;;;36.67;28.80;;;;;;;;;;5073137;28;20442;-83
2023/04/16 00:13:31;;;;;;;36.47;28.43;;;;;;;;;;5069967;28;20479;-83
2023/04/16 00:15:58;;;;;;;33.50;28.63;;;;;;;;;;5069391;28;20507;-83
2023/04/16 00:18:26;;;;;;;37.27;29.93;;;;;;;;;;5070025;28;20411;-83
2023/04/16 00:20:53;;;;;;;38.08;29.23;;;;;;;;;;5069542;28;20950;-82
2023/04/16 00:23:19;;;;;;;36.35;30.85;;;;;;;;;;5069683;28;20434;-82
2023/04/16 00:25:46;;;;;;;35.27;28.40;;;;;;;;;;5069153;28;20419;-83
2023/04/16 00:28:14;;;;;;;38.92;29.55;;;;;;;;;;5069550;28;20436;-83
2023/04/16 00:30:40;;;;;;;38.15;28.63;;;;;;;;;;5067234;28;20422;-82
2023/04/16 00:33:06;;;;;;;37.08;29.13;;;;;;;;;;5070497;28;20404;-83
2023/04/16 00:35:33;;;;;;;32.70;27.65;;;;;;;;;;5069479;28;20407;-83
2023/04/16 00:37:59;;;;;;;34.58;27.60;;;;;;;;;;5070868;28;20412;-83
2023/04/16 00:40:27;;;;;;;38.47;29.10;;;;;;;;;;5071769;28;20889;-83
2023/04/16 00:42:53;;;;;;;35.08;28.98;;;;;;;;;;5072462;28;20768;-82
2023/04/16 00:45:21;;;;;;;35.92;29.58;;;;;;;;;;5072617;28;20417;-82
2023/04/16 00:47:47;;;;;;;34.42;29.00;;;;;;;;;;5074192;28;20888;-83
2023/04/16 00:50:14;;;;;;;35.47;27.73;;;;;;;;;;5073021;28;20412;-83
2023/04/16 00:52:41;;;;;;;36.63;28.17;;;;;;;;;;5072273;28;20429;-83
2023/04/16 00:55:12;;;;;;;36.75;28.63;;;;;;;;;;5072694;28;20408;-83
2023/04/16 00:57:38;;;;;;;34.22;28.77;;;;;;;;;;5073933;28;20418;-83
2023/04/16 01:00:05;;;;;;;37.30;29.73;;;;;;;;;;5074081;28;20420;-83
2023/04/16 01:02:33;;;;;;;36.42;27.83;;;;;;;;;;5075118;28;20415;-83
2023/04/16 01:05:00;;;;;;;37.17;27.85;;;;;;;;;;5069133;28;20424;-82
2023/04/16 01:07:26;;;;;;;35.40;28.20;;;;;;;;;;5073007;28;20408;-83
2023/04/16 01:09:52;;;;;;;40.15;29.92;;;;;;;;;;5068971;28;20421;-83
2023/04/16 01:12:19;;;;;;;37.60;29.30;;;;;;;;;;5072505;28;20419;-83
2023/04/16 01:14:45;;;;;;;39.25;29.63;;;;;;;;;;5070581;28;20408;-83
2023/04/16 01:17:11;;;;;;;34.73;28.80;;;;;;;;;;5070028;28;20415;-82
2023/04/16 01:19:39;;;;;;;37.95;29.52;;;;;;;;;;5070493;28;20411;-83
2023/04/16 01:22:07;;;;;;;37.92;30.88;;;;;;;;;;5073089;28;20439;-83
2023/04/16 01:24:34;;;;;;;38.25;29.55;;;;;;;;;;5070529;28;20411;-82
2023/04/16 01:27:00;;;;;;;39.45;28.98;;;;;;;;;;5072131;28;20500;-83
2023/04/16 01:29:27;;;;;;;40.33;29.35;;;;;;;;;;5075568;28;20412;-83
2023/04/16 01:31:54;;;;;;;36.50;28.50;;;;;;;;;;5071018;28;20839;-82
2023/04/16 01:34:20;;;;;;;38.70;29.95;;;;;;;;;;5071329;28;20447;-83
2023/04/16 01:36:47;;;;;;;37.03;28.75;;;;;;;;;;5071692;28;20917;-82
2023/04/16 01:39:16;;;;;;;37.30;28.50;;;;;;;;;;5070883;28;20408;-83
2023/04/16 01:41:42;;;;;;;38.78;29.40;;;;;;;;;;5071245;28;20518;-82
2023/04/16 01:44:08;;;;;;;37.08;28.27;;;;;;;;;;5072985;28;25745;-83
2023/04/16 01:46:35;;;;;;;39.20;29.58;;;;;;;;;;5070676;28;20424;-82
2023/04/16 01:49:02;;;;;;;35.85;28.63;;;;;;;;;;5067676;28;20432;-83
2023/04/16 01:51:28;;;;;;;38.25;29.83;;;;;;;;;;5073056;28;20894;-83
2023/04/16 01:53:57;;;;;;;34.42;28.63;;;;;;;;;;5072634;28;20415;-82
2023/04/16 01:56:25;;;;;;;40.45;29.58;;;;;;;;;;5070148;28;20483;-83
2023/04/16 01:58:51;;;;;;;34.63;28.70;;;;;;;;;;5070994;28;20423;-82
2023/04/16 02:01:18;;;;;;;37.53;30.55;;;;;;;;;;5067093;28;20428;-83
2023/04/16 02:03:44;;;;;;;38.65;30.42;;;;;;;;;;5069968;28;20427;-82
2023/04/16 02:06:10;;;;;;;41.03;29.65;;;;;;;;;;5072143;28;20435;-82
2023/04/16 02:08:37;;;;;;;39.78;28.90;;;;;;;;;;5069934;28;20432;-83
2023/04/16 02:11:03;;;;;;;37.78;29.58;;;;;;;;;;5063717;28;20424;-82
2023/04/16 02:13:31;;;;;;;40.47;28.98;;;;;;;;;;5072478;28;20416;-82
2023/04/16 02:15:57;;;;;;;36.38;29.98;;;;;;;;;;5070175;28;20431;-83
2023/04/16 02:18:25;;;;;;;40.67;30.13;;;;;;;;;;5070219;28;20912;-83
2023/04/16 02:20:51;;;;;;;39.13;30.13;;;;;;;;;;5066293;28;20431;-83
2023/04/16 02:23:18;;;;;;;36.72;29.55;;;;;;;;;;5071790;28;20425;-82
2023/04/16 02:25:45;;;;;;;37.63;30.23;;;;;;;;;;5069349;28;20905;-83
2023/04/16 02:28:12;;;;;;;39.53;30.08;;;;;;;;;;5067907;28;20416;-83
2023/04/16 02:30:40;;;;;;;38.80;30.08;;;;;;;;;;5068667;28;20920;-83
2023/04/16 02:33:07;;;;;;;38.23;29.27;;;;;;;;;;5072357;28;21008;-83
2023/04/16 02:35:34;;;;;;;39.70;31.07;;;;;;;;;;5071751;28;20425;-82
2023/04/16 02:38:00;;;;;;;39.13;30.93;;;;;;;;;;5067511;28;20415;-83
2023/04/16 02:40:27;;;;;;;38.58;29.58;;;;;;;;;;5070293;28;20423;-83
2023/04/16 02:42:54;;;;;;;38.72;30.95;;;;;;;;;;5073880;28;20411;-83
2023/04/16 02:45:21;;;;;;;39.55;31.10;;;;;;;;;;5067850;28;20431;-81
2023/04/16 02:47:49;;;;;;;38.22;31.30;;;;;;;;;;5071377;28;20786;-83
2023/04/16 02:50:15;;;;;;;39.45;31.45;;;;;;;;;;5070222;28;20948;-83
2023/04/16 02:52:41;;;;;;;39.45;31.30;;;;;;;;;;5055746;28;20847;-83
2023/04/16 02:55:09;;;;;;;38.08;31.25;;;;;;;;;;5069900;28;20427;-83
2023/04/16 02:57:35;;;;;;;44.83;32.80;;;;;;;;;;5069501;28;20432;-83
2023/04/16 03:00:03;;;;;;;39.90;30.97;;;;;;;;;;5069652;28;20458;-82
2023/04/16 03:02:29;;;;;;;38.83;32.10;;;;;;;;;;5072962;28;20435;-82
2023/04/16 03:04:57;;;;;;;41.95;30.90;;;;;;;;;;5065712;28;20421;-82
2023/04/16 03:07:24;;;;;;;41.13;32.10;;;;;;;;;;5073144;28;21050;-83
2023/04/16 03:09:50;;;;;;;40.17;31.53;;;;;;;;;;5069176;28;20429;-83
2023/04/16 03:12:16;;;;;;;37.65;31.70;;;;;;;;;;5069233;28;20441;-83
2023/04/16 03:14:43;;;;;;;42.97;31.90;;;;;;;;;;5066295;28;20411;-82
2023/04/16 03:17:09;;;;;;;42.03;32.70;;;;;;;;;;5066650;28;20499;-83
2023/04/16 03:19:36;;;;;;;39.97;32.28;;;;;;;;;;5074553;28;20781;-83
2023/04/16 03:22:04;;;;;;;43.60;32.80;;;;;;;;;;5065480;28;20419;-83
2023/04/16 03:24:31;;;;;;;39.85;32.35;;;;;;;;;;5068309;28;20848;-83
2023/04/16 03:26:57;;;;;;;39.80;30.83;;;;;;;;;;5064949;28;20447;-83
2023/04/16 03:29:23;;;;;;;39.38;31.48;;;;;;;;;;5071237;28;20491;-83
2023/04/16 03:31:50;;;;;;;41.28;31.85;;;;;;;;;;5067497;28;20490;-83
2023/04/16 03:34:16;;;;;;;41.43;32.20;;;;;;;;;;5069602;28;20407;-83
2023/04/16 03:36:43;;;;;;;39.65;31.05;;;;;;;;;;5072155;28;20431;-83
2023/04/16 03:39:10;;;;;;;39.33;31.70;;;;;;;;;;5074485;28;20419;-83
2023/04/16 03:41:37;;;;;;;43.38;33.00;;;;;;;;;;5068321;28;20429;-83
2023/04/16 03:44:03;;;;;;;41.85;32.08;;;;;;;;;;5070835;28;20443;-83
2023/04/16 03:46:30;;;;;;;44.38;32.50;;;;;;;;;;5070619;28;20785;-83
2023/04/16 03:48:56;;;;;;;42.10;32.15;;;;;;;;;;5070556;28;20908;-83
2023/04/16 03:51:23;;;;;;;46.08;33.05;;;;;;;;;;5066199;28;20788;-83
2023/04/16 03:53:50;;;;;;;45.17;32.50;;;;;;;;;;5069393;28;20427;-83
2023/04/16 03:56:18;;;;;;;43.63;31.00;;;;;;;;;;5069226;28;20420;-83
2023/04/16 03:58:44;;;;;;;41.35;32.15;;;;;;;;;;5071183;28;20931;-82
2023/04/16 04:01:10;;;;;;;41.28;31.50;;;;;;;;;;5069608;28;20419;-82
2023/04/16 04:03:37;;;;;;;39.78;30.92;;;;;;;;;;5069983;28;20420;-83
2023/04/16 04:06:06;;;;;;;42.33;32.80;;;;;;;;;;5069356;28;20967;-83
2023/04/16 04:08:33;;;;;;;42.25;31.60;;;;;;;;;;5070587;28;20416;-83
2023/04/16 04:10:59;;;;;;;42.72;31.85;;;;;;;;;;5073822;28;20460;-82
2023/04/16 04:13:27;;;;;;;42.77;31.13;;;;;;;;;;5076150;28;20430;-83
2023/04/16 04:15:54;;;;;;;37.65;30.50;;;;;;;;;;5074308;28;20420;-83
2023/04/16 04:18:21;;;;;;;44.22;32.40;;;;;;;;;;5075469;28;20425;-83
2023/04/16 04:20:48;;;;;;;36.33;29.90;;;;;;;;;;5076002;28;20438;-83
2023/04/16 04:23:14;;;;;;;39.30;30.35;;;;;;;;;;5074552;28;20885;-83
2023/04/16 04:25:41;;;;;;;41.43;31.10;;;;;;;;;;5069658;28;20453;-83
2023/04/16 04:28:07;;;;;;;39.13;31.55;;;;;;;;;;5072947;28;20430;-83
2023/04/16 04:30:35;;;;;;;40.55;31.67;;;;;;;;;;5071949;28;20416;-83
2023/04/16 04:33:02;;;;;;;39.72;30.98;;;;;;;;;;5075555;28;20484;-82
2023/04/16 04:35:28;;;;;;;41.78;30.67;;;;;;;;;;5072446;28;20419;-83
2023/04/16 04:37:55;;;;;;;41.30;31.60;;;;;;;;;;5074518;28;20913;-83
2023/04/16 04:40:21;;;;;;;39.70;30.20;;;;;;;;;;5074745;28;20416;-83
2023/04/16 04:42:47;;;;;;;41.17;29.25;;;;;;;;;;5074594;28;20430;-83
2023/04/16 04:45:14;;;;;;;41.38;29.83;;;;;;;;;;5076374;28;20411;-83
2023/04/16 04:47:42;;;;;;;41.65;31.27;;;;;;;;;;5071687;28;20420;-82
2023/04/16 04:50:09;;;;;;;36.45;29.70;;;;;;;;;;5072807;28;20417;-83
2023/04/16 04:52:35;;;;;;;39.45;29.15;;;;;;;;;;5076914;28;20414;-83
2023/04/16 04:55:02;;;;;;;39.37;29.23;;;;;;;;;;5073815;28;20471;-83
2023/04/16 04:57:28;;;;;;;39.22;29.95;;;;;;;;;;5072746;28;20427;-83
2023/04/16 04:59:54;;;;;;;39.38;29.73;;;;;;;;;;5069730;28;20415;-83
2023/04/16 05:02:21;;;;;;;38.85;29.48;;;;;;;;;;5074882;28;20435;-83
2023/04/16 05:04:48;;;;;;;37.72;29.65;;;;;;;;;;5068893;28;20439;-82
2023/04/16 05:07:15;;;;;;;36.78;28.55;;;;;;;;;;5071966;28;20416;-82
2023/04/16 05:09:41;;;;;;;41.95;28.52;;;;;;;;;;5073757;28;20420;-83
2023/04/16 05:12:08;;;;;;;38.33;28.88;;;;;;;;;;5074520;28;20793;-82
2023/04/16 05:14:35;;;;;;;37.63;28.98;;;;;;;;;;5070122;28;20781;-83
2023/04/16 05:17:01;;;;;;;36.80;29.30;;;;;;;;;;5073559;28;20427;-83
2023/04/16 05:19:27;;;;;;;34.58;27.55;;;;;;;;;;5071145;28;20462;-83
2023/04/16 05:21:55;;;;;;;36.20;27.47;;;;;;;;;;5067986;28;20522;-82
2023/04/16 05:24:22;;;;;;;36.63;27.27;;;;;;;;;;5074970;28;20419;-83
2023/04/16 05:26:48;;;;;;;33.65;27.13;;;;;;;;;;5069690;28;20417;-83
2023/04/16 05:29:15;;;;;;;33.92;25.52;;;;;;;;;;5070167;28;20414;-83
2023/04/16 05:31:41;;;;;;;33.63;26.47;;;;;;;;;;5073443;28;20411;-83
2023/04/16 05:34:07;;;;;;;34.30;26.23;;;;;;;;;;5068839;28;20443;-82
2023/04/16 05:36:34;;;;;;;33.13;25.67;;;;;;;;;;5072785;28;20457;-83
2023/04/16 05:39:02;;;;;;;33.70;25.83;;;;;;;;;;5073436;28;20415;-83
2023/04/16 05:41:28;;;;;;;34.63;27.03;;;;;;;;;;5074955;28;20874;-83
2023/04/16 05:43:55;;;;;;;32.53;25.80;;;;;;;;;;5069709;28;20428;-82
2023/04/16 05:46:21;;;;;;;33.80;25.33;;;;;;;;;;5079385;28;20419;-83
2023/04/16 05:48:48;;;;;;;34.87;25.80;;;;;;;;;;5073449;28;20458;-83
2023/04/16 05:51:14;;;;;;;33.92;25.90;;;;;;;;;;5073843;28;20415;-82
2023/04/16 05:53:40;;;;;;;31.80;25.80;;;;;;;;;;5069727;28;20464;-83
2023/04/16 05:56:09;;;;;;;30.77;24.20;;;;;;;;;;5072792;28;20420;-82
2023/04/16 05:58:35;;;;;;;33.55;24.83;;;;;;;;;;5069296;28;20789;-83
2023/04/16 06:01:02;;;;;;;32.80;25.55;;;;;;;;;;5068601;28;20423;-82
2023/04/16 06:03:28;;;;;;;35.65;24.80;;;;;;;;;;5069627;28;20656;-83
2023/04/16 06:05:55;;;;;;;32.70;24.83;;;;;;;;;;5070505;28;20427;-82
2023/04/16 06:08:21;;;;;;;32.90;25.48;;;;;;;;;;5071098;28;20431;-83
2023/04/16 06:10:48;;;;;;;31.00;24.23;;;;;;;;;;5069040;28;20911;-82
2023/04/16 06:13:16;;;;;;;35.08;25.98;;;;;;;;;;5065709;28;20417;-82
2023/04/16 06:15:43;;;;;;;29.05;23.42;;;;;;;;;;5068803;28;20453;-83
2023/04/16 06:18:09;;;;;;;34.10;24.52;;;;;;;;;;5074019;28;20416;-82
2023/04/16 06:20:36;;;;;;;32.30;24.75;;;;;;;;;;5072727;28;20420;-83
2023/04/16 06:23:03;;;;;;;33.35;24.60;;;;;;;;;;5070336;28;20423;-83
2023/04/16 06:25:29;;;;;;;31.80;24.88;;;;;;;;;;5068649;28;20805;-83
2023/04/16 06:27:56;;;;;;;30.08;23.90;;;;;;;;;;5075228;28;20768;-83
2023/04/16 06:30:24;;;;;;;30.83;23.10;;;;;;;;;;5066299;28;20422;-83
2023/04/16 06:32:50;;;;;;;32.00;24.75;;;;;;;;;;5069226;28;20415;-83
2023/04/16 06:35:18;;;;;;;29.50;23.52;;;;;;;;;;5072913;28;20420;-83
2023/04/16 06:37:45;;;;;;;30.23;22.90;;;;;;;;;;5068281;28;20432;-82
2023/04/16 06:40:12;;;;;;;30.20;22.27;;;;;;;;;;5068926;28;20938;-83
2023/04/16 06:42:38;;;;;;;30.50;23.48;;;;;;;;;;5071285;28;20955;-83
2023/04/16 06:45:05;;;;;;;28.58;23.23;;;;;;;;;;5069862;28;20420;-83
2023/04/16 06:47:33;;;;;;;28.77;22.55;;;;;;;;;;5071912;28;20934;-83
2023/04/16 06:49:59;;;;;;;29.52;22.60;;;;;;;;;;5068389;28;20431;-82
2023/04/16 06:52:26;;;;;;;26.80;21.20;;;;;;;;;;5069300;28;20427;-83
2023/04/16 06:54:52;;;;;;;32.70;22.80;;;;;;;;;;5071250;28;20423;-83
2023/04/16 06:57:19;;;;;;;28.60;22.48;;;;;;;;;;5066856;28;20419;-83
2023/04/16 06:59:45;;;;;;;30.80;22.40;;;;;;;;;;5064205;28;20915;-83
2023/04/16 07:02:12;;;;;;;28.40;22.73;;;;;;;;;;5064168;28;20440;-84
2023/04/16 07:04:40;;;;;;;27.53;22.07;;;;;;;;;;5069491;28;20448;-83
2023/04/16 07:07:06;;;;;;;28.70;23.23;;;;;;;;;;5070812;28;20458;-83
2023/04/16 07:09:32;;;;;;;31.20;22.52;;;;;;;;;;5071813;28;20436;-84
2023/04/16 07:11:59;;;;;;;28.20;22.92;;;;;;;;;;5072368;28;20412;-83
2023/04/16 07:14:25;;;;;;;28.13;23.23;;;;;;;;;;5071685;28;20412;-82
2023/04/16 07:16:52;;;;;;;26.73;22.08;;;;;;;;;;5067875;28;20423;-82
2023/04/16 07:19:18;;;;;;;28.73;22.65;;;;;;;;;;5069856;28;20419;-82
2023/04/16 07:21:46;;;;;;;31.52;23.58;;;;;;;;;;5068459;28;20419;-82
2023/04/16 07:24:12;;;;;;;27.00;22.38;;;;;;;;;;5068191;28;20446;-82
2023/04/16 07:26:39;;;;;;;28.23;21.90;;;;;;;;;;5069447;28;20423;-82
2023/04/16 07:29:05;;;;;;;30.67;22.10;;;;;;;;;;5069555;28;20442;-82
2023/04/16 07:31:32;;;;;;;30.67;22.50;;;;;;;;;;5066680;28;20421;-82
2023/04/16 07:33:58;;;;;;;30.10;22.30;;;;;;;;;;5070773;28;20419;-82
2023/04/16 07:36:26;;;;;;;29.70;22.60;;;;;;;;;;5069301;28;20535;-81
2023/04/16 07:38:53;;;;;;;27.43;23.00;;;;;;;;;;5069770;28;20511;-82
2023/04/16 07:41:20;;;;;;;28.35;23.05;;;;;;;;;;5072785;28;20775;-82
2023/04/16 07:43:46;;;;;;;28.65;22.70;;;;;;;;;;5068470;28;20831;-82
2023/04/16 07:46:13;;;;;;;31.80;23.10;;;;;;;;;;5068411;28;20466;-81
2023/04/16 07:48:39;;;;;;;30.10;23.50;;;;;;;;;;5066443;28;20422;-80
2023/04/16 07:51:06;;;;;;;28.90;22.10;;;;;;;;;;5069238;28;20427;-79
2023/04/16 07:53:32;;;;;;;29.73;22.50;;;;;;;;;;5061153;28;20416;-80
2023/04/16 07:56:01;;;;;;;28.85;22.70;;;;;;;;;;5066910;28;20410;-79
2023/04/16 07:58:28;;;;;;;29.40;23.48;;;;;;;;;;5072725;28;20416;-80
2023/04/16 08:00:56;;;;;;;27.63;22.88;;;;;;;;;;5067481;28;20853;-81
2023/04/16 08:03:23;;;;;;;29.50;23.73;;;;;;;;;;5065849;28;20916;-80
2023/04/16 08:05:49;;;;;;;29.02;23.08;;;;;;;;;;5069938;28;20415;-80
2023/04/16 08:08:16;;;;;;;30.73;23.58;;;;;;;;;;5069682;28;20515;-81
2023/04/16 08:10:42;;;;;;;31.00;23.45;;;;;;;;;;5069391;28;20411;-80
2023/04/16 08:13:10;;;;;;;29.10;22.70;;;;;;;;;;5067055;28;20416;-80
2023/04/16 08:15:36;;;;;;;28.30;22.70;;;;;;;;;;5070417;28;20436;-80
2023/04/16 08:18:04;;;;;;;27.70;22.40;;;;;;;;;;5064107;28;20403;-80
2023/04/16 08:20:31;;;;;;;30.50;22.90;;;;;;;;;;5066375;28;20438;-80
2023/04/16 08:23:00;;;;;;;29.05;23.27;;;;;;;;;;5065343;28;20436;-80
2023/04/16 08:25:27;;;;;;;28.13;23.50;;;;;;;;;;5066731;28;20930;-80
2023/04/16 08:27:53;;;;;;;28.58;22.23;;;;;;;;;;5068066;28;20435;-80
2023/04/16 08:30:21;;;;;;;31.20;22.07;;;;;;;;;;5067174;28;20956;-80
2023/04/16 08:32:48;;;;;;;28.02;21.90;;;;;;;;;;5067887;28;20759;-80
2023/04/16 08:35:15;;;;;;;28.65;22.02;;;;;;;;;;5066850;28;20417;-80
2023/04/16 08:37:41;;;;;;;30.92;21.50;;;;;;;;;;5065802;28;20920;-80
2023/04/16 08:40:08;;;;;;;31.00;23.03;;;;;;;;;;5066518;28;20436;-81
2023/04/16 08:42:39;;;;;;;26.43;21.70;;;;;;;;;;5066196;28;20431;-80
2023/04/16 08:45:07;;;;;;;28.55;20.42;;;;;;;;;;5066939;28;20897;-80
2023/04/16 08:47:36;;;;;;;28.83;23.10;;;;;;;;;;5072835;28;20422;-80
2023/04/16 08:50:03;;;;;;;30.33;21.92;;;;;;;;;;5064430;28;20819;-81
2023/04/16 08:52:30;;;;;;;27.40;21.53;;;;;;;;;;5066226;28;20974;-80
2023/04/16 08:54:59;;;;;;;26.20;20.70;;;;;;;;;;5067466;28;20416;-81
2023/04/16 08:57:30;;;;;;;28.98;21.70;;;;;;;;;;5072688;28;20415;-81
2023/04/16 08:59:57;;;;;;;30.15;21.08;;;;;;;;;;5073056;28;20431;-80
2023/04/16 09:02:25;;;;;;;28.38;20.80;;;;;;;;;;5070883;28;20430;-80
2023/04/16 09:04:53;;;;;;;24.90;19.90;;;;;;;;;;5068993;28;20423;-80
2023/04/16 09:07:20;;;;;;;27.75;20.85;;;;;;;;;;5068730;28;20789;-80
2023/04/16 09:09:48;;;;;;;27.98;20.27;;;;;;;;;;5071009;28;20427;-80
2023/04/16 09:12:17;;;;;;;29.00;20.15;;;;;;;;;;5069795;28;20423;-80
2023/04/16 09:14:46;;;;;;;28.00;20.00;;;;;;;;;;5072114;28;20482;-81
2023/04/16 09:17:13;;;;;;;28.52;21.42;;;;;;;;;;5070324;28;20431;-81
2023/04/16 09:19:40;;;;;;;26.80;20.30;;;;;;;;;;5069983;28;20427;-80
2023/04/16 09:22:08;;;;;;;27.13;20.85;;;;;;;;;;5072528;28;20427;-80
2023/04/16 09:24:34;;;;;;;26.75;20.35;;;;;;;;;;5069011;28;20412;-80
2023/04/16 09:27:02;;;;;;;27.35;20.20;;;;;;;;;;5063562;28;20432;-80
2023/04/16 09:29:38;;;;;;;27.73;21.15;;;;;;;;;;5069745;28;20427;-81
2023/04/16 09:32:05;;;;;;;27.67;20.07;;;;;;;;;;5069820;28;20435;-80
2023/04/16 09:34:32;;;;;;;23.58;20.30;;;;;;;;;;5071597;28;20427;-81
2023/04/16 09:39:56;;;;;;;25.02;19.73;;;;;;;;;;5067366;27;20395;-80
2023/04/16 09:42:23;;;;;;;24.90;20.07;;;;;;;;;;5074400;28;20513;-79
2023/04/16 09:44:51;;;;;;;27.48;20.30;;;;;;;;;;5080707;28;20927;-80
2023/04/16 09:47:17;;;;;;;24.77;19.95;;;;;;;;;;5071705;28;20444;-81
2023/04/16 09:49:47;;;;;;;26.02;21.00;;;;;;;;;;5071719;28;20419;-78
2023/04/16 09:52:14;;;;;;;29.13;22.02;;;;;;;;;;5074209;28;20423;-80
2023/04/16 09:54:45;;;;;;;27.45;21.75;;;;;;;;;;5075530;28;20417;-81
2023/04/16 09:57:14;;;;;;;31.77;22.65;;;;;;;;;;5075298;28;20426;-81
2023/04/16 09:59:41;;;;;;;26.02;22.50;;;;;;;;;;5071686;28;20944;-78
2023/04/16 10:02:09;;;;;;;24.15;21.10;;;;;;;;;;5072393;28;20439;-79
2023/04/16 10:04:46;;;;;;;26.88;20.70;;;;;;;;;;5076039;28;20420;-81
2023/04/16 10:07:13;;;;;;;26.33;21.30;;;;;;;;;;5075948;28;20420;-80
2023/04/16 10:09:40;;;;;;;26.73;20.75;;;;;;;;;;5074431;28;20494;-79
2023/04/16 10:12:06;;;;;;;26.23;20.90;;;;;;;;;;5076934;28;20474;-79
2023/04/16 10:14:34;;;;;;;25.45;19.38;;;;;;;;;;5080998;28;20420;-79
2023/04/16 10:17:01;;;;;;;24.55;20.80;;;;;;;;;;5070108;28;20432;-81
2023/04/16 10:19:30;;;;;;;26.55;20.98;;;;;;;;;;5072723;28;20520;-81
2023/04/16 10:21:57;;;;;;;25.20;20.85;;;;;;;;;;5072275;28;20452;-81
2023/04/16 10:24:25;;;;;;;22.52;19.00;;;;;;;;;;5076828;28;20416;-81
2023/04/16 10:26:52;;;;;;;24.80;19.08;;;;;;;;;;5069987;28;20798;-80
2023/04/16 10:29:19;;;;;;;21.50;19.20;;;;;;;;;;5069136;28;21083;-81
2023/04/16 10:31:47;;;;;;;25.25;18.73;;;;;;;;;;5069958;28;20430;-80
2023/04/16 10:34:14;;;;;;;22.08;19.05;;;;;;;;;;5069942;28;20435;-82
2023/04/16 10:36:41;;;;;;;23.67;18.80;;;;;;;;;;5069916;28;20442;-79
2023/04/16 10:39:11;;;;;;;24.38;19.80;;;;;;;;;;5088215;28;20795;-80
2023/04/16 10:41:37;;;;;;;23.65;19.88;;;;;;;;;;5090488;28;20498;-80
2023/04/16 10:44:04;;;;;;;19.95;17.85;;;;;;;;;;5091014;28;20481;-81
2023/04/16 10:46:33;;;;;;;22.33;19.13;;;;;;;;;;5077642;28;20416;-81
2023/04/16 10:49:02;;;;;;;23.85;19.00;;;;;;;;;;5091963;28;20770;-82
2023/04/16 10:51:31;;;;;;;22.43;17.80;;;;;;;;;;5082974;28;20431;-82
2023/04/16 10:53:58;;;;;;;21.23;17.50;;;;;;;;;;5080571;28;20428;-81
2023/04/16 10:56:25;;;;;;;21.63;17.75;;;;;;;;;;5078919;28;20506;-81
2023/04/16 10:58:52;;;;;;;22.23;18.38;;;;;;;;;;5084730;28;20414;-81
2023/04/16 11:01:19;;;;;;;20.60;17.90;;;;;;;;;;5082183;28;20427;-82
2023/04/16 11:03:46;;;;;;;20.98;18.23;;;;;;;;;;5080383;28;20407;-82
2023/04/16 11:06:16;;;;;;;20.17;17.88;;;;;;;;;;5078652;28;20916;-82
2023/04/16 11:08:44;;;;;;;20.00;17.60;;;;;;;;;;5083940;28;20410;-82
2023/04/16 11:11:11;;;;;;;21.60;17.40;;;;;;;;;;5081184;28;20415;-82
2023/04/16 11:13:40;;;;;;;23.00;17.50;;;;;;;;;;5084447;28;20408;-82
2023/04/16 11:16:06;;;;;;;21.30;17.10;;;;;;;;;;5080184;28;20429;-83
2023/04/16 11:18:33;;;;;;;21.27;17.15;;;;;;;;;;5084554;28;20421;-82
2023/04/16 11:20:59;;;;;;;19.77;17.33;;;;;;;;;;5082008;28;20880;-82
2023/04/16 11:23:27;;;;;;;21.35;17.10;;;;;;;;;;5081210;28;20499;-82
2023/04/16 11:25:56;;;;;;;21.13;17.70;;;;;;;;;;5086470;28;20473;-82
2023/04/16 11:28:32;;;;;;;23.38;18.30;;;;;;;;;;5075764;28;20421;-82
2023/04/16 11:30:58;;;;;;;21.00;17.53;;;;;;;;;;5073899;28;20834;-82
2023/04/16 11:33:25;;;;;;;20.08;16.65;;;;;;;;;;5082114;28;20446;-82
2023/04/16 11:35:56;;;;;;;18.92;16.83;;;;;;;;;;5091403;28;20418;-82
2023/04/16 11:38:34;;;;;;;21.27;17.70;;;;;;;;;;5078866;28;20446;-82
2023/04/16 11:41:01;;;;;;;23.48;18.83;;;;;;;;;;5082494;28;20824;-82
2023/04/16 11:43:27;;;;;;;19.70;17.07;;;;;;;;;;5083047;28;20409;-82
2023/04/16 11:45:56;;;;;;;20.00;17.30;;;;;;;;;;5078870;28;20427;-82
2023/04/16 11:48:22;;;;;;;19.63;16.55;;;;;;;;;;5083307;28;20407;-82
2023/04/16 11:50:57;;;;;;;20.33;17.80;;;;;;;;;;5084014;28;20760;-82
2023/04/16 11:53:24;;;;;;;19.48;17.10;;;;;;;;;;5082425;28;20419;-82
2023/04/16 11:55:52;;;;;;;21.55;17.38;;;;;;;;;;5084437;28;20411;-81
2023/04/16 11:58:22;;;;;;;23.37;19.00;;;;;;;;;;5082991;28;20916;-81
2023/04/16 12:00:52;;;;;;;19.85;17.75;;;;;;;;;;5079481;28;20420;-81
2023/04/16 12:03:18;;;;;;;22.08;19.05;;;;;;;;;;5081676;28;20439;-81
2023/04/16 12:05:45;;;;;;;23.67;20.88;;;;;;;;;;5080766;28;20412;-81
2023/04/16 12:08:12;;;;;;;22.90;20.00;;;;;;;;;;5079049;28;20443;-81
2023/04/16 12:10:53;;;;;;;23.43;20.00;;;;;;;;;;5079036;28;20431;-81
2023/04/16 12:13:21;;;;;;;23.30;19.65;;;;;;;;;;5082590;28;20420;-81
2023/04/16 12:15:48;;;;;;;24.15;20.15;;;;;;;;;;5084705;28;20887;-80
2023/04/16 12:18:14;;;;;;;24.70;21.67;;;;;;;;;;5075355;28;20418;-81
2023/04/16 12:20:41;;;;;;;23.25;19.27;;;;;;;;;;5084396;28;20431;-81
2023/04/16 12:23:08;;;;;;;23.80;21.20;;;;;;;;;;5085507;28;20410;-81
2023/04/16 12:25:34;;;;;;;23.93;21.33;;;;;;;;;;5085218;28;21041;-81
2023/04/16 12:28:01;;;;;;;23.13;20.73;;;;;;;;;;5081310;28;20404;-81
2023/04/16 12:30:29;;;;;;;23.00;19.60;;;;;;;;;;5080806;28;20433;-81
2023/04/16 12:33:11;;;;;;;23.10;19.50;;;;;;;;;;5066153;28;20416;-82
2023/04/16 12:35:37;;;;;;;21.90;19.50;;;;;;;;;;5077337;28;20420;-81
2023/04/16 12:38:03;;;;;;;22.63;19.75;;;;;;;;;;5082359;28;20416;-82
2023/04/16 12:40:30;;;;;;;21.77;19.48;;;;;;;;;;5076901;28;20433;-82
2023/04/16 12:42:56;;;;;;;22.10;19.50;;;;;;;;;;5081409;28;20468;-81
2023/04/16 12:45:23;;;;;;;22.13;19.63;;;;;;;;;;5085295;28;20416;-82
2023/04/16 12:47:50;;;;;;;24.37;19.33;;;;;;;;;;5077034;28;20496;-82
2023/04/16 12:50:17;;;;;;;22.98;19.40;;;;;;;;;;5083229;28;20410;-82
2023/04/16 12:52:43;;;;;;;22.50;19.20;;;;;;;;;;5075448;28;20434;-82
2023/04/16 12:55:10;;;;;;;22.58;20.10;;;;;;;;;;5077982;28;20416;-82
2023/04/16 12:57:36;;;;;;;23.63;20.70;;;;;;;;;;5083193;28;20482;-82
2023/04/16 13:00:03;;;;;;;25.65;20.23;;;;;;;;;;5079090;28;20429;-82
2023/04/16 13:02:31;;;;;;;25.67;20.45;;;;;;;;;;5084690;28;20773;-82
2023/04/16 13:04:58;;;;;;;22.77;19.60;;;;;;;;;;5081140;28;20426;-82
2023/04/16 13:07:25;;;;;;;24.63;21.30;;;;;;;;;;5076282;28;20426;-82
2023/04/16 13:09:52;;;;;;;22.63;20.23;;;;;;;;;;5081046;28;20491;-82
2023/04/16 13:12:18;;;;;;;23.13;20.30;;;;;;;;;;5081298;28;20411;-82
2023/04/16 13:14:44;;;;;;;22.75;19.27;;;;;;;;;;5086101;28;20412;-81
2023/04/16 13:17:11;;;;;;;21.65;19.35;;;;;;;;;;5079611;28;20411;-82
2023/04/16 13:19:37;;;;;;;23.83;20.92;;;;;;;;;;5081569;28;20939;-82
2023/04/16 13:22:05;;;;;;;22.27;19.30;;;;;;;;;;5074781;28;20924;-82
2023/04/16 13:24:31;;;;;;;22.83;19.58;;;;;;;;;;5082535;28;20825;-82
2023/04/16 13:26:58;;;;;;;23.00;19.17;;;;;;;;;;5086189;28;20421;-83
2023/04/16 13:29:25;;;;;;;24.40;19.52;;;;;;;;;;5083267;28;21134;-82
2023/04/16 13:31:52;;;;;;;21.30;18.98;;;;;;;;;;5083458;28;20500;-82
2023/04/16 13:34:18;;;;;;;24.58;21.35;;;;;;;;;;5080644;28;20421;-82
2023/04/16 13:36:45;;;;;;;24.05;20.10;;;;;;;;;;5080157;28;20433;-82
2023/04/16 13:39:12;;;;;;;25.48;20.77;;;;;;;;;;5083078;28;20757;-82
2023/04/16 13:41:39;;;;;;;23.17;19.67;;;;;;;;;;5082047;28;20422;-82
2023/04/16 13:44:06;;;;;;;22.00;19.52;;;;;;;;;;5079694;28;20419;-82
2023/04/16 13:46:33;;;;;;;23.35;20.42;;;;;;;;;;5081325;28;20412;-82
2023/04/16 13:49:00;;;;;;;27.38;20.92;;;;;;;;;;5081924;28;20412;-82
2023/04/16 13:51:27;;;;;;;23.38;19.65;;;;;;;;;;5079171;28;20419;-82
2023/04/16 13:53:53;;;;;;;23.60;19.45;;;;;;;;;;5079948;28;20490;-82
2023/04/16 13:56:21;;;;;;;23.65;20.98;;;;;;;;;;5077569;28;20427;-81
2023/04/16 13:58:48;;;;;;;23.40;20.30;;;;;;;;;;5060358;28;20442;-83
2023/04/16 14:01:14;;;;;;;25.15;20.48;;;;;;;;;;5077988;28;20408;-82
2023/04/16 14:03:42;;;;;;;22.90;18.92;;;;;;;;;;5077318;28;20419;-81
2023/04/16 14:06:09;;;;;;;22.37;19.50;;;;;;;;;;5076926;28;20420;-82
2023/04/16 14:08:35;;;;;;;23.63;19.73;;;;;;;;;;5075769;28;20869;-81
2023/04/16 14:11:01;;;;;;;23.92;20.35;;;;;;;;;;5076943;28;20414;-82
2023/04/16 14:13:29;;;;;;;23.08;19.67;;;;;;;;;;5078679;28;20492;-81
2023/04/16 14:15:56;;;;;;;26.10;19.50;;;;;;;;;;5063908;28;20437;-81
2023/04/16 14:18:22;;;;;;;23.50;19.88;;;;;;;;;;5081847;28;20792;-81